TimePST,TemperatureF,Dew PointF,Humidity,Sea Level PressureIn,VisibilityMPH,Wind Direction,Wind SpeedMPH,Gust SpeedMPH,PrecipitationIn,Events,Conditions,WindDirDegrees,DateUTC
12:53 AM,45.0,37.9,76,30.07,10.0,East,3.5,-,N/A,,Clear,100,2012-12-22 08:53:00
1:53 AM,45.0,37.9,76,30.07,10.0,Calm,Calm,-,N/A,,Clear,0,2012-12-22 09:53:00
2:53 AM,44.1,37.0,76,30.07,10.0,Calm,Calm,-,N/A,,Clear,0,2012-12-22 10:53:00
3:53 AM,43.0,37.0,80,30.07,10.0,Calm,Calm,-,N/A,,Clear,0,2012-12-22 11:53:00
4:53 AM,43.0,37.0,80,30.08,10.0,Calm,Calm,-,N/A,,Clear,0,2012-12-22 12:53:00
5:53 AM,45.0,37.0,74,30.09,10.0,East,3.5,-,N/A,,Clear,100,2012-12-22 13:53:00
6:53 AM,44.1,37.0,76,30.11,10.0,Calm,Calm,-,N/A,,Clear,0,2012-12-22 14:53:00
7:53 AM,44.1,37.9,79,30.12,10.0,Calm,Calm,-,N/A,,Clear,0,2012-12-22 15:53:00
8:53 AM,52.0,39.0,61,30.15,10.0,East,3.5,-,N/A,,Clear,90,2012-12-22 16:53:00
9:53 AM,57.0,42.1,57,30.16,10.0,Calm,Calm,-,N/A,,Clear,0,2012-12-22 17:53:00
10:53 AM,60.1,41.0,49,30.16,10.0,Variable,4.6,-,N/A,,Clear,0,2012-12-22 18:53:00
11:53 AM,63.0,39.0,41,30.14,10.0,Variable,4.6,-,N/A,,Clear,0,2012-12-22 19:53:00
12:53 PM,64.9,39.9,40,30.12,10.0,Calm,Calm,-,N/A,,Clear,0,2012-12-22 20:53:00
1:53 PM,64.0,44.1,48,30.12,10.0,SSW,4.6,-,N/A,,Scattered Clouds,200,2012-12-22 21:53:00
2:53 PM,63.0,45.0,52,30.12,10.0,SSW,4.6,-,N/A,,Overcast,210,2012-12-22 22:53:00
3:53 PM,62.1,46.9,58,30.12,10.0,Variable,4.6,-,N/A,,Overcast,0,2012-12-22 23:53:00
4:53 PM,60.1,46.9,62,30.13,10.0,SSW,6.9,-,N/A,,Overcast,210,2012-12-23 00:53:00
5:53 PM,60.1,46.9,62,30.15,10.0,SSW,5.8,-,N/A,,Overcast,200,2012-12-23 01:53:00
6:53 PM,60.1,46.9,62,30.16,10.0,Calm,Calm,-,N/A,,Overcast,0,2012-12-23 02:53:00
7:53 PM,60.1,48.0,64,30.16,10.0,South,3.5,-,N/A,,Overcast,190,2012-12-23 03:53:00
8:53 PM,60.1,48.0,64,30.18,10.0,Calm,Calm,-,N/A,,Overcast,0,2012-12-23 04:53:00
9:07 PM,60.8,48.2,63,30.18,9.0,SW,4.6,-,0.00,Rain,Light Rain,220,2012-12-23 05:07:00
9:53 PM,57.0,50.0,77,30.19,7.0,Calm,Calm,-,0.00,Rain,Light Rain,0,2012-12-23 05:53:00
10:08 PM,55.4,51.8,88,30.20,7.0,Calm,Calm,-,0.00,,Overcast,0,2012-12-23 06:08:00
10:53 PM,57.0,51.1,81,30.18,9.0,Calm,Calm,-,0.00,,Overcast,0,2012-12-23 06:53:00
11:04 PM,57.2,51.8,82,30.18,8.0,Calm,Calm,-,N/A,,Overcast,0,2012-12-23 07:04:00
11:53 PM,57.0,51.1,81,30.17,9.0,Calm,Calm,-,N/A,,Overcast,0,2012-12-23 07:53:00